createdAt,value
2017-12-19T00:01:06.459Z,98.87
2017-12-19T00:03:34.037Z,85.33
2017-12-19T00:06:01.710Z,100.93
2017-12-19T00:08:30.046Z,96.23
2017-12-19T00:10:57.594Z,94.63
2017-12-19T00:13:25.191Z,101.97
2017-12-19T00:15:52.784Z,105.47
2017-12-19T00:18:21.118Z,119.00
2017-12-19T00:20:49.433Z,103.80
2017-12-19T00:23:17.777Z,89.37
2017-12-19T00:25:46.202Z,95.63
2017-12-19T00:28:14.547Z,90.23
2017-12-19T00:30:42.112Z,88.77
2017-12-19T00:33:09.695Z,97.47
2017-12-19T00:35:38.007Z,93.03
2017-12-19T00:38:05.753Z,90.47
2017-12-19T00:40:33.314Z,84.50
2017-12-19T00:43:00.941Z,102.07
2017-12-19T00:45:28.564Z,87.33
2017-12-19T00:47:56.122Z,104.77
2017-12-19T00:50:23.709Z,94.47
2017-12-19T00:52:51.325Z,92.33
2017-12-19T00:55:18.908Z,98.93
2017-12-19T00:57:47.066Z,94.50
2017-12-19T01:00:14.641Z,80.87
2017-12-19T01:02:42.214Z,95.20
2017-12-19T01:05:09.798Z,87.70
2017-12-19T01:07:37.358Z,86.73
2017-12-19T01:10:04.945Z,82.60
2017-12-19T01:12:33.353Z,93.73
2017-12-19T01:15:00.983Z,80.67
2017-12-19T01:17:29.313Z,87.50
2017-12-19T01:19:56.878Z,82.83
2017-12-19T01:22:24.482Z,85.50
2017-12-19T01:24:52.791Z,79.50
2017-12-19T01:27:20.366Z,89.67
2017-12-19T01:29:47.932Z,82.50
2017-12-19T01:32:15.589Z,93.50
2017-12-19T01:34:43.512Z,93.80
2017-12-19T01:37:11.988Z,77.10
2017-12-19T01:39:40.313Z,92.10
2017-12-19T01:42:07.869Z,78.17
2017-12-19T01:44:35.464Z,102.77
2017-12-19T01:47:03.018Z,85.00
2017-12-19T01:49:30.614Z,90.53
2017-12-19T01:51:59.128Z,95.93
2017-12-19T01:54:26.694Z,94.20
2017-12-19T01:56:54.256Z,91.80
2017-12-19T01:59:21.826Z,95.10
2017-12-19T02:01:49.497Z,86.13
2017-12-19T02:04:17.095Z,90.57
2017-12-19T02:06:45.987Z,101.23
2017-12-19T02:09:13.578Z,100.10
2017-12-19T02:11:41.139Z,93.03
2017-12-19T02:14:08.690Z,74.20
2017-12-19T02:16:36.257Z,96.17
2017-12-19T02:19:03.817Z,85.80
2017-12-19T02:21:31.392Z,85.33
2017-12-19T02:23:58.933Z,88.73
2017-12-19T02:26:26.481Z,84.50
2017-12-19T02:28:54.827Z,83.60
2017-12-19T02:31:22.870Z,92.30
2017-12-19T02:33:50.794Z,74.90
2017-12-19T02:36:18.371Z,85.50
2017-12-19T02:38:46.689Z,74.87
2017-12-19T02:41:14.282Z,83.33
2017-12-19T02:43:41.900Z,82.87
2017-12-19T02:46:10.237Z,82.47
2017-12-19T02:48:38.586Z,85.63
2017-12-19T02:51:06.153Z,75.90
2017-12-19T02:53:33.718Z,90.70
2017-12-19T02:56:01.257Z,95.03
2017-12-19T02:58:28.810Z,96.00
2017-12-19T03:00:56.393Z,96.67
2017-12-19T03:03:23.974Z,86.03
2017-12-19T03:05:52.299Z,101.77
2017-12-19T03:08:19.871Z,106.37
2017-12-19T03:10:47.440Z,80.97
2017-12-19T03:13:14.998Z,99.70
2017-12-19T03:15:42.557Z,102.47
2017-12-19T03:18:10.163Z,87.07
2017-12-19T03:20:38.528Z,94.73
2017-12-19T03:23:06.079Z,89.00
2017-12-19T03:25:33.630Z,83.87
2017-12-19T03:28:01.169Z,85.37
2017-12-19T03:30:28.748Z,75.07
2017-12-19T03:32:56.289Z,86.83
2017-12-19T03:35:23.861Z,85.47
2017-12-19T03:37:51.529Z,83.97
2017-12-19T03:40:20.001Z,78.80
2017-12-19T03:42:47.569Z,83.67
2017-12-19T03:45:15.121Z,96.17
2017-12-19T03:47:42.694Z,83.67
2017-12-19T03:50:10.245Z,96.07
2017-12-19T03:52:37.809Z,81.67
2017-12-19T03:55:05.363Z,85.43
2017-12-19T03:57:32.969Z,84.47
2017-12-19T04:00:00.489Z,76.73
2017-12-19T04:02:28.077Z,87.30
2017-12-19T04:04:55.624Z,73.80
2017-12-19T04:07:23.179Z,93.20
2017-12-19T04:09:50.744Z,73.43
2017-12-19T04:12:18.278Z,80.93
2017-12-19T04:14:45.847Z,74.07
2017-12-19T04:17:13.401Z,68.70
2017-12-19T04:19:40.982Z,60.93
2017-12-19T04:22:08.529Z,62.30
2017-12-19T04:24:36.078Z,75.07
2017-12-19T04:27:03.801Z,78.03
2017-12-19T04:29:32.150Z,72.37
2017-12-19T04:31:59.689Z,72.20
2017-12-19T04:34:27.273Z,64.33
2017-12-19T04:36:54.810Z,75.50
2017-12-19T04:39:22.458Z,78.27
2017-12-19T04:41:50.017Z,82.97
2017-12-19T04:44:17.697Z,72.63
2017-12-19T04:46:45.278Z,70.33
2017-12-19T04:49:12.835Z,84.77
2017-12-19T04:51:40.410Z,89.87
2017-12-19T04:54:07.955Z,72.17
2017-12-19T04:56:35.514Z,70.07
2017-12-19T04:59:03.062Z,75.20
2017-12-19T05:01:30.643Z,73.27
2017-12-19T05:03:58.202Z,73.40
2017-12-19T05:06:25.811Z,64.53
2017-12-19T05:08:53.394Z,65.50
2017-12-19T05:11:21.711Z,71.60
2017-12-19T05:13:49.266Z,64.80
2017-12-19T05:16:16.843Z,68.43
2017-12-19T05:18:44.405Z,72.17
2017-12-19T05:21:12.727Z,73.13
2017-12-19T05:23:40.379Z,74.37
2017-12-19T05:26:08.006Z,62.37
2017-12-19T05:28:35.594Z,67.57
2017-12-19T05:31:03.154Z,63.77
2017-12-19T05:33:30.729Z,67.37
2017-12-19T05:35:58.288Z,68.97
2017-12-19T05:38:25.899Z,61.33
2017-12-19T05:40:53.462Z,67.37
2017-12-19T05:43:21.091Z,70.77
2017-12-19T05:45:48.653Z,64.77
2017-12-19T05:48:16.230Z,70.40
2017-12-19T05:50:43.829Z,64.90
2017-12-19T05:53:12.150Z,61.87
2017-12-19T05:55:39.714Z,65.07
2017-12-19T05:58:07.268Z,67.17
2017-12-19T06:00:34.826Z,70.10
2017-12-19T06:03:02.411Z,63.00
2017-12-19T06:05:30.142Z,75.97
2017-12-19T06:07:57.731Z,80.77
2017-12-19T06:10:26.057Z,87.07
2017-12-19T06:12:54.424Z,84.60
2017-12-19T06:15:22.759Z,76.80
2017-12-19T06:17:50.337Z,77.20
2017-12-19T06:20:17.903Z,74.73
2017-12-19T06:22:45.456Z,70.67
2017-12-19T06:25:13.011Z,70.43
2017-12-19T06:27:40.591Z,81.00
2017-12-19T06:30:08.155Z,76.73
2017-12-19T06:32:35.750Z,77.90
2017-12-19T06:35:04.158Z,76.67
2017-12-19T06:37:31.735Z,76.40
2017-12-19T06:39:59.271Z,74.77
2017-12-19T06:42:26.859Z,84.37
2017-12-19T06:44:54.444Z,83.00
2017-12-19T06:47:28.499Z,82.70
2017-12-19T06:49:56.926Z,78.00
2017-12-19T06:52:25.302Z,76.57
2017-12-19T06:54:52.869Z,79.17
2017-12-19T06:57:20.413Z,88.10
2017-12-19T06:59:47.990Z,71.80
2017-12-19T07:02:15.537Z,70.40
2017-12-19T07:04:43.231Z,75.40
2017-12-19T07:07:11.562Z,85.57
2017-12-19T07:09:39.494Z,85.23
2017-12-19T07:12:07.039Z,90.93
2017-12-19T07:14:35.370Z,81.33
2017-12-19T07:17:02.945Z,70.30
2017-12-19T07:19:30.562Z,74.50
2017-12-19T07:21:58.105Z,72.60
2017-12-19T07:24:26.418Z,69.07
2017-12-19T07:26:53.996Z,68.20
2017-12-19T07:29:21.567Z,78.63
2017-12-19T07:31:49.172Z,70.03
2017-12-19T07:34:17.475Z,76.37
2017-12-19T07:36:45.822Z,72.90
2017-12-19T07:39:14.131Z,69.43
2017-12-19T07:41:41.691Z,70.90
2017-12-19T07:44:09.254Z,74.33
2017-12-19T07:46:36.798Z,66.43
2017-12-19T07:49:04.398Z,78.80
2017-12-19T07:51:32.009Z,78.00
2017-12-19T07:54:00.358Z,103.63
2017-12-19T07:56:27.934Z,75.80
2017-12-19T07:58:56.257Z,88.23
2017-12-19T08:01:24.009Z,93.53
2017-12-19T08:03:51.559Z,97.07
2017-12-19T08:06:19.155Z,87.17
2017-12-19T08:08:46.733Z,108.10
2017-12-19T08:11:14.310Z,82.50
2017-12-19T08:13:41.908Z,94.93
2017-12-19T08:16:09.502Z,104.37
2017-12-19T08:18:37.074Z,100.70
2017-12-19T08:21:04.688Z,110.60
2017-12-19T08:23:32.302Z,97.97
2017-12-19T08:25:59.929Z,94.57
2017-12-19T08:28:27.493Z,93.47
2017-12-19T08:30:55.082Z,113.63
2017-12-19T08:33:22.654Z,89.30
2017-12-19T08:35:50.244Z,100.47
2017-12-19T08:38:18.596Z,97.53
2017-12-19T08:40:46.182Z,82.87
2017-12-19T08:43:14.490Z,93.83
2017-12-19T08:45:42.070Z,94.70
2017-12-19T08:48:09.723Z,102.93
2017-12-19T08:50:37.303Z,106.27
2017-12-19T08:53:04.920Z,96.73
2017-12-19T08:55:33.246Z,102.40
2017-12-19T08:58:00.854Z,93.90
2017-12-19T09:00:29.170Z,96.43
2017-12-19T09:02:56.758Z,102.40
2017-12-19T09:05:24.345Z,96.33
2017-12-19T09:07:52.712Z,90.47
2017-12-19T09:10:20.357Z,89.97
2017-12-19T09:12:47.955Z,77.73
2017-12-19T09:15:16.300Z,84.27
2017-12-19T09:17:43.918Z,73.27
2017-12-19T09:20:11.523Z,94.77
2017-12-19T09:22:39.112Z,83.00
2017-12-19T09:25:07.461Z,82.40
2017-12-19T09:27:35.020Z,89.27
2017-12-19T09:30:02.617Z,78.17
2017-12-19T09:32:30.995Z,77.33
2017-12-19T09:34:59.338Z,84.10
2017-12-19T09:37:27.044Z,67.83
2017-12-19T09:39:55.451Z,86.80
2017-12-19T09:42:23.037Z,69.63
2017-12-19T09:44:50.696Z,77.47
2017-12-19T09:47:18.251Z,73.17
2017-12-19T09:49:45.840Z,63.55
2017-12-19T09:52:13.394Z,79.33
2017-12-19T09:54:40.964Z,81.13
2017-12-19T09:57:08.539Z,82.83
2017-12-19T09:59:36.854Z,70.53
2017-12-19T10:02:04.465Z,79.83
2017-12-19T10:04:32.045Z,98.40
2017-12-19T10:07:00.406Z,96.23
2017-12-19T10:09:27.962Z,81.80
2017-12-19T10:11:55.565Z,82.77
2017-12-19T10:14:23.120Z,90.33
2017-12-19T10:16:50.705Z,101.67
2017-12-19T10:19:18.335Z,104.27
2017-12-19T10:21:46.657Z,87.23
2017-12-19T10:24:14.235Z,90.20
2017-12-19T10:26:41.794Z,100.83
2017-12-19T10:29:09.377Z,106.63
2017-12-19T10:31:36.932Z,92.40
2017-12-19T10:34:04.496Z,103.70
2017-12-19T10:36:32.169Z,92.67
2017-12-19T10:39:00.517Z,91.63
2017-12-19T10:41:28.086Z,100.20
2017-12-19T10:43:55.656Z,79.00
2017-12-19T10:46:23.340Z,101.57
2017-12-19T10:48:51.694Z,102.40
2017-12-19T10:51:19.277Z,86.00
2017-12-19T10:53:47.618Z,88.97
2017-12-19T10:56:15.190Z,87.60
2017-12-19T10:58:42.757Z,93.27
2017-12-19T11:01:10.350Z,86.23
2017-12-19T11:03:37.934Z,85.57
2017-12-19T11:06:05.606Z,78.13
2017-12-19T11:08:33.245Z,92.40
2017-12-19T11:11:00.821Z,98.20
2017-12-19T11:13:28.414Z,93.20
2017-12-19T11:15:55.983Z,83.90
2017-12-19T11:18:23.530Z,78.17
2017-12-19T11:20:51.120Z,79.43
2017-12-19T11:23:19.434Z,71.13
2017-12-19T11:25:47.021Z,76.70
2017-12-19T11:28:14.679Z,84.77
2017-12-19T11:30:42.254Z,92.63
2017-12-19T11:33:09.821Z,97.83
2017-12-19T11:35:37.462Z,74.83
2017-12-19T11:38:05.005Z,80.20
2017-12-19T11:40:32.577Z,63.07
2017-12-19T11:43:00.917Z,78.87
2017-12-19T11:45:29.246Z,67.37
2017-12-19T11:47:56.837Z,71.37
2017-12-19T11:50:24.441Z,70.57
2017-12-19T11:52:52.018Z,78.27
2017-12-19T11:55:19.629Z,63.90
2017-12-19T11:57:47.972Z,57.93
2017-12-19T12:00:15.514Z,79.27
2017-12-19T12:02:43.125Z,80.43
2017-12-19T12:05:11.479Z,67.17
2017-12-19T12:07:39.471Z,74.10
2017-12-19T12:10:07.029Z,76.73
2017-12-19T12:12:34.661Z,79.37
2017-12-19T12:15:02.226Z,76.90
2017-12-19T12:17:29.826Z,80.27
2017-12-19T12:19:58.169Z,75.13
2017-12-19T12:22:25.769Z,84.17
2017-12-19T12:24:54.098Z,77.13
2017-12-19T12:27:24.241Z,88.83
2017-12-19T12:29:54.210Z,73.57
2017-12-19T12:32:22.095Z,83.87
2017-12-19T12:34:50.014Z,78.90
2017-12-19T12:37:17.570Z,69.17
2017-12-19T12:39:45.173Z,76.40
2017-12-19T12:42:13.494Z,70.93
2017-12-19T12:44:41.118Z,75.33
2017-12-19T12:47:08.670Z,84.83
2017-12-19T12:49:36.263Z,76.50
2017-12-19T12:52:03.833Z,87.33
2017-12-19T12:54:32.032Z,87.00
2017-12-19T12:56:59.657Z,87.10
2017-12-19T12:59:27.265Z,84.40
2017-12-19T13:01:54.899Z,92.00
2017-12-19T13:04:22.505Z,75.83
2017-12-19T13:06:50.860Z,82.77
2017-12-19T13:09:18.450Z,76.77
2017-12-19T13:11:46.035Z,93.97
2017-12-19T13:14:13.621Z,86.03
2017-12-19T13:16:41.175Z,71.60
2017-12-19T13:19:08.754Z,79.80
2017-12-19T13:21:36.362Z,79.53
2017-12-19T13:24:03.945Z,74.10
2017-12-19T13:26:31.545Z,68.70
2017-12-19T13:28:59.195Z,74.80
2017-12-19T13:31:26.809Z,72.00
2017-12-19T13:33:54.580Z,75.03
2017-12-19T13:36:22.170Z,65.63
2017-12-19T13:38:49.790Z,64.47
2017-12-19T13:41:17.397Z,64.87
2017-12-19T13:43:45.171Z,61.40
2017-12-19T13:46:12.771Z,74.63
2017-12-19T13:48:41.244Z,60.57
2017-12-19T13:51:11.906Z,74.33
2017-12-19T13:53:39.581Z,64.93
2017-12-19T13:56:07.162Z,60.50
2017-12-19T13:58:34.753Z,75.03
2017-12-19T14:01:03.082Z,58.90
2017-12-19T14:03:30.668Z,69.63
2017-12-19T14:05:58.245Z,70.67
2017-12-19T14:08:25.931Z,74.10
2017-12-19T14:10:54.363Z,71.07
2017-12-19T14:13:27.527Z,64.87
2017-12-19T14:15:56.157Z,62.60
2017-12-19T14:18:23.710Z,68.30
2017-12-19T14:20:51.306Z,66.40
2017-12-19T14:23:19.643Z,60.57
2017-12-19T14:25:47.345Z,69.50
2017-12-19T14:28:15.744Z,69.53
2017-12-19T14:30:43.529Z,65.67
2017-12-19T14:33:11.206Z,62.97
2017-12-19T14:35:38.793Z,65.97
2017-12-19T14:38:06.403Z,72.97
2017-12-19T14:40:34.010Z,71.00
2017-12-19T14:43:01.592Z,61.10
2017-12-19T14:45:29.942Z,64.40
2017-12-19T14:47:57.514Z,63.50
2017-12-19T14:50:25.084Z,68.20
2017-12-19T14:52:52.700Z,78.97
2017-12-19T14:55:20.509Z,61.27
2017-12-19T14:57:48.115Z,74.90
2017-12-19T15:00:15.712Z,85.70
2017-12-19T15:02:43.640Z,67.67
2017-12-19T15:05:11.238Z,71.70
2017-12-19T15:07:38.769Z,64.17
2017-12-19T15:10:06.467Z,61.13
2017-12-19T15:12:34.037Z,73.27
2017-12-19T15:15:01.646Z,66.23
2017-12-19T15:17:29.213Z,69.57
2017-12-19T15:19:56.813Z,83.53
2017-12-19T15:22:24.407Z,70.93
2017-12-19T15:24:52.827Z,82.50
2017-12-19T15:27:20.389Z,69.97
2017-12-19T15:29:47.984Z,80.97
2017-12-19T15:32:15.590Z,66.00
2017-12-19T15:34:47.323Z,73.87
2017-12-19T15:37:14.913Z,77.07
2017-12-19T15:39:46.002Z,83.57
2017-12-19T15:42:13.614Z,69.93
2017-12-19T15:44:48.010Z,67.83
2017-12-19T15:47:23.905Z,62.27
2017-12-19T15:49:53.503Z,65.57
2017-12-19T15:52:21.427Z,73.70
2017-12-19T15:54:52.713Z,76.10
2017-12-19T15:57:21.100Z,72.97
2017-12-19T15:59:52.448Z,62.17
2017-12-19T16:02:20.049Z,65.77
2017-12-19T16:04:47.670Z,66.17
2017-12-19T16:07:15.243Z,79.07
2017-12-19T16:09:42.832Z,69.17
2017-12-19T16:12:10.383Z,75.90
2017-12-19T16:14:37.989Z,67.20
2017-12-19T16:17:06.329Z,69.87
2017-12-19T16:19:33.914Z,75.43
2017-12-19T16:22:01.508Z,66.73
2017-12-19T16:24:29.854Z,74.67
2017-12-19T16:26:57.521Z,72.17
2017-12-19T16:29:25.096Z,85.03
2017-12-19T16:31:53.448Z,70.70
2017-12-19T16:34:21.041Z,64.37
2017-12-19T16:36:49.382Z,81.93
2017-12-19T16:39:18.371Z,86.17
2017-12-19T16:41:45.949Z,70.60
2017-12-19T16:44:13.520Z,64.30
2017-12-19T16:46:41.119Z,63.73
2017-12-19T16:49:08.771Z,68.67
2017-12-19T16:51:36.342Z,69.77
2017-12-19T16:54:04.759Z,69.73
2017-12-19T16:56:32.342Z,71.73
2017-12-19T16:58:59.911Z,62.97
2017-12-19T17:01:28.282Z,59.50
2017-12-19T17:03:55.836Z,71.33
2017-12-19T17:06:23.476Z,63.40
2017-12-19T17:08:51.042Z,63.20
2017-12-19T17:11:18.686Z,70.20
2017-12-19T17:13:46.353Z,66.33
2017-12-19T17:16:14.686Z,67.70
2017-12-19T17:19:01.712Z,71.87
2017-12-19T17:21:30.044Z,69.40
2017-12-19T17:23:57.662Z,78.53
2017-12-19T17:26:25.242Z,67.70
2017-12-19T17:28:52.859Z,71.53
2017-12-19T17:31:20.425Z,72.73
2017-12-19T17:33:48.861Z,71.83
2017-12-19T17:36:16.464Z,68.33
2017-12-19T17:38:44.855Z,67.40
2017-12-19T17:41:13.201Z,69.60
2017-12-19T17:43:40.946Z,71.40
2017-12-19T17:46:26.923Z,76.13
2017-12-19T17:48:54.489Z,73.07
2017-12-19T17:51:22.090Z,76.10
2017-12-19T17:53:49.665Z,66.50
2017-12-19T17:56:18.018Z,76.30
2017-12-19T17:58:45.621Z,70.83
2017-12-19T18:01:13.952Z,75.50
2017-12-19T18:03:41.637Z,72.10
2017-12-19T18:06:09.752Z,76.80
2017-12-19T18:08:38.423Z,75.00
2017-12-19T18:11:06.059Z,67.17
2017-12-19T18:13:33.628Z,62.47
2017-12-19T18:16:01.208Z,61.50
2017-12-19T18:18:29.564Z,65.80
2017-12-19T18:20:57.134Z,62.37
2017-12-19T18:23:25.518Z,64.17
2017-12-19T18:25:56.599Z,61.80
2017-12-19T18:28:24.270Z,54.27
2017-12-19T18:30:51.927Z,58.47
2017-12-19T18:33:19.493Z,45.93
2017-12-19T18:35:47.106Z,50.47
2017-12-19T18:38:15.487Z,59.43
2017-12-19T18:40:43.871Z,58.67
2017-12-19T18:43:12.235Z,60.63
2017-12-19T18:45:39.872Z,53.13
2017-12-19T18:48:07.605Z,54.73
2017-12-19T18:50:35.472Z,54.70
2017-12-19T18:53:03.235Z,50.97
2017-12-19T18:55:30.840Z,56.80
2017-12-19T18:57:58.642Z,52.13
2017-12-19T19:00:26.238Z,54.00
2017-12-19T19:02:53.826Z,50.70
2017-12-19T19:05:21.464Z,50.73
2017-12-19T19:07:49.826Z,52.33
2017-12-19T19:10:17.417Z,53.00
2017-12-19T19:12:45.776Z,57.90
2017-12-19T19:15:15.235Z,52.13
2017-12-19T19:17:42.910Z,52.00
2017-12-19T19:20:11.257Z,47.53
2017-12-19T19:22:38.859Z,49.63
2017-12-19T19:25:07.302Z,43.63
2017-12-19T19:27:34.970Z,43.93
2017-12-19T19:30:02.693Z,44.90
2017-12-19T19:32:30.297Z,45.20
2017-12-19T19:34:57.947Z,41.90
2017-12-19T19:37:25.534Z,51.90
2017-12-19T19:39:53.326Z,45.00
2017-12-19T19:42:20.932Z,41.57
2017-12-19T19:44:48.518Z,45.63
2017-12-19T19:47:16.186Z,46.10
2017-12-19T19:49:44.613Z,47.30
2017-12-19T19:52:12.227Z,51.90
2017-12-19T19:54:40.626Z,42.20
2017-12-19T19:57:09.027Z,39.03
2017-12-19T19:59:36.623Z,45.90
2017-12-19T20:02:04.245Z,42.70
2017-12-19T20:04:31.936Z,42.00
2017-12-19T20:06:59.592Z,40.73
2017-12-19T20:09:27.279Z,41.73
2017-12-19T20:11:54.864Z,44.23
2017-12-19T20:14:23.232Z,38.77
2017-12-19T20:16:50.842Z,44.40
2017-12-19T20:19:18.444Z,38.43
2017-12-19T20:21:46.049Z,33.70
2017-12-19T20:24:13.649Z,40.17
2017-12-19T20:26:41.253Z,39.87
2017-12-19T20:29:09.627Z,37.17
2017-12-19T20:31:37.978Z,38.87
2017-12-19T20:34:05.564Z,33.60
2017-12-19T20:36:33.959Z,33.07
2017-12-19T20:39:02.380Z,35.80
2017-12-19T20:41:29.990Z,30.30
2017-12-19T20:43:57.582Z,29.17
2017-12-19T20:46:25.264Z,30.23
2017-12-19T20:48:52.936Z,35.97
2017-12-19T20:51:20.514Z,31.07
2017-12-19T20:53:48.185Z,31.73
2017-12-19T20:56:15.802Z,33.23
2017-12-19T20:58:43.415Z,30.10
2017-12-19T21:01:11.039Z,31.13
2017-12-19T21:03:38.627Z,29.67
2017-12-19T21:06:06.344Z,30.97
2017-12-19T21:08:33.955Z,25.63
2017-12-19T21:11:01.695Z,27.60
2017-12-19T21:13:29.438Z,29.33
2017-12-19T21:15:57.268Z,26.73
2017-12-19T21:18:25.818Z,29.53
2017-12-19T21:20:53.419Z,31.97
2017-12-19T21:23:22.559Z,27.70
2017-12-19T21:25:50.218Z,28.53
2017-12-19T21:28:17.897Z,27.90
2017-12-19T21:30:45.461Z,29.10
2017-12-19T21:33:13.046Z,27.60
2017-12-19T21:35:41.291Z,29.77
2017-12-19T21:38:09.134Z,28.07
2017-12-19T21:40:36.784Z,27.27
2017-12-19T21:43:05.153Z,31.53
2017-12-19T21:45:33.572Z,27.07
2017-12-19T21:48:01.158Z,37.60
2017-12-19T21:50:28.748Z,32.00
2017-12-19T21:52:56.313Z,24.00
2017-12-19T21:55:24.684Z,26.07
2017-12-19T21:57:53.079Z,28.13
2017-12-19T22:00:21.435Z,23.77
2017-12-19T22:02:49.130Z,27.47
2017-12-19T22:05:16.720Z,28.83
2017-12-19T22:07:45.070Z,23.90
2017-12-19T22:10:13.426Z,29.23
2017-12-19T22:12:41.769Z,27.70
2017-12-19T22:15:09.347Z,27.40
2017-12-19T22:17:36.966Z,28.77
2017-12-19T22:20:04.533Z,29.27
2017-12-19T22:22:32.134Z,29.80
2017-12-19T22:24:59.717Z,29.30
2017-12-19T22:27:28.168Z,29.73
2017-12-19T22:29:55.742Z,27.90
2017-12-19T22:32:23.321Z,23.90
2017-12-19T22:34:51.661Z,26.70
2017-12-19T22:37:19.221Z,25.97
2017-12-19T22:39:46.810Z,24.97
2017-12-19T22:42:15.245Z,27.50
2017-12-19T22:44:42.823Z,26.37
2017-12-19T22:47:10.409Z,28.27
2017-12-19T22:49:37.984Z,27.33
2017-12-19T22:52:06.342Z,25.60
2017-12-19T22:54:33.914Z,27.40
2017-12-19T22:57:01.574Z,27.00
2017-12-19T22:59:29.162Z,26.37
2017-12-19T23:01:57.580Z,28.23
2017-12-19T23:04:25.162Z,24.67
2017-12-19T23:06:52.742Z,25.00
2017-12-19T23:09:20.313Z,24.13
2017-12-19T23:11:48.844Z,23.70
2017-12-19T23:14:16.449Z,21.07
2017-12-19T23:16:44.019Z,23.17
2017-12-19T23:19:12.383Z,25.67
2017-12-19T23:21:39.953Z,20.40
2017-12-19T23:24:08.314Z,20.33
2017-12-19T23:26:35.887Z,18.83
2017-12-19T23:29:03.486Z,19.40
2017-12-19T23:31:31.174Z,21.27
2017-12-19T23:33:58.727Z,22.57
2017-12-19T23:36:26.326Z,23.27
2017-12-19T23:38:53.879Z,20.63
2017-12-19T23:41:21.463Z,20.43
2017-12-19T23:43:50.207Z,17.13
2017-12-19T23:46:18.578Z,19.10
2017-12-19T23:48:46.553Z,20.60
2017-12-19T23:51:14.149Z,19.10
2017-12-19T23:53:41.744Z,18.93
2017-12-19T23:56:10.069Z,19.43
2017-12-19T23:58:37.719Z,18.27
